Tunnel City, WI

12:53 AM CDT on August 23, 2014 (GMT -0500)
Water Mill | Change Station
CLOSE
Current Station
Personal Weather Station
Location: Tomah, WI
Elevation: 950 ft
Nearby Weather Stations

Elev 950 ft 44.05 °N, 90.46 °W | Updated 24 seconds ago

Overcast
Overcast
70.8 °F
Feels Like 70.8 °F
N
0.0
Wind Variable Wind from WNW
Gusts 0.0 mph

Today
High -- | Low -- °F
--% Chance of Precip.
Yesterday
High -- | Low -- °F
Precip. -- in
6:15 AM 7:53 PM
Waning Crescent, 5% visible
Pressure 29.98 in
Visibility -9999.0 miles
Clouds Overcast 100 ft
Dew Point 71 °F
Humidity 100%
Rainfall 0.00 in
Snow Depth Not available.
UV 1.0 out of 12
Pollen 7.00 out of 12
Air Quality Not available.
Flu Activity Not available.
METAR KCMY 230535Z AUTO 00000KT OVC001 20/19 A2998 RMK AO2 T01980193 PWINO

More Conditions Fewer Conditions

Pressure 29.98 in
Visibility -9999.0 miles
Clouds Overcast 100 ft
Dew Point 71 °F
Humidity 100%
Rainfall 0.00 in
Snow Depth Not available.
UV 1.0 out of 12
Pollen 7.00 out of 12
Air Quality Not available.
Flu Activity Not available.
METAR KCMY 230535Z AUTO 00000KT OVC001 20/19 A2998 RMK AO2 T01980193 PWINO

More Conditions Fewer Conditions

10-Day Weather Forecast

Almanac

Astronomy

Aug. 23, 2014 Rise Set
Actual Time 6:15 AM CDT 7:53 PM CDT
Civil Twilight 5:44 AM CDT 8:23 PM CDT
Nautical Twilight 5:07 AM CDT 9:00 PM CDT
Astronomical Twilight 4:27 AM CDT 9:40 PM CDT
Moon 4:30 AM CDT 6:38 PM CDT
Length of Visible Light 14h 39m
Length of Day
13h 38m
Tomorrow will be 2m 50s shorter.
Waning Crescent, 5% of the Moon is Illuminated
Today
Waning Crescent
Aug 25
New
Sep 2
First Quarter
Sep 8
Full
Sep 15
Last Quarter

Today's Extremes

State Highs State Lows

Community

WunderPhotos

Upload Photos

1,746,372 photos uploaded!

WunderBlogs® & News

By Dr. Jeff Masters
Director of Meteorology, Weather Underground
By Kari Strenfel
Meteorologist, Weather Underground
By Christopher C. Burt
Weather Historian, Weather Underground
August 23, 2014
August 23, 2014
August 22, 2014

Nearby

Snow Depth

Station Depth Elevation
No new snow has been reported.

Earthquake Activity

City Distance Mag. Time & Date
No recent earthquake activity has been reported nearby.
Minimum magnitude displayed is 2.5.

Coastal Water Temperatures

Place Temperature
No Stations Reporting

Nearby Weather Stations